Las Vegas (LAS/KLAS)

Information

Location
Las Vegas, NV
Local Time
21:33 / 9:33 pm
GMT Time
05:33 / 5:33 am
Gates
Unassigned
No FAA reported delays
METAR KLAS 260456Z 00000KT 10SM BKN180 09/M08 A2992 RMK AO2 SLP132 T00941078
TAF KLAS 260245Z 2603/2624 VRB05KT P6SM BKN180 FM260500 21005KT P6SM BKN180 FM261500 VRB05KT P6SM SCT100 BKN150
  • No charts available